sensor_id;sensor_type;location;lat;lon;timestamp;P1;durP1;ratioP1;P2;durP2;ratioP2
17145;SDS011;8688;54.444;18.444;2022-12-29T00:03:47;9.80;;;6.10;;
17145;SDS011;8688;54.444;18.444;2022-12-29T00:06:14;10.07;;;6.53;;
17145;SDS011;8688;54.444;18.444;2022-12-29T00:08:43;10.10;;;5.63;;
17145;SDS011;8688;54.444;18.444;2022-12-29T00:11:11;9.70;;;6.07;;
17145;SDS011;8688;54.444;18.444;2022-12-29T00:13:40;9.80;;;5.30;;
17145;SDS011;8688;54.444;18.444;2022-12-29T00:16:26;7.20;;;5.23;;
17145;SDS011;8688;54.444;18.444;2022-12-29T00:18:54;11.20;;;5.47;;
17145;SDS011;8688;54.444;18.444;2022-12-29T00:21:22;8.03;;;5.23;;
17145;SDS011;8688;54.444;18.444;2022-12-29T00:24:14;7.43;;;5.10;;
17145;SDS011;8688;54.444;18.444;2022-12-29T00:27:08;8.40;;;4.70;;
17145;SDS011;8688;54.444;18.444;2022-12-29T00:29:55;8.10;;;4.80;;
17145;SDS011;8688;54.444;18.444;2022-12-29T00:32:40;5.23;;;4.30;;
17145;SDS011;8688;54.444;18.444;2022-12-29T00:35:25;7.97;;;4.47;;
17145;SDS011;8688;54.444;18.444;2022-12-29T00:37:55;6.57;;;4.00;;
17145;SDS011;8688;54.444;18.444;2022-12-29T00:40:43;6.13;;;4.30;;
17145;SDS011;8688;54.444;18.444;2022-12-29T00:43:28;4.97;;;3.73;;
17145;SDS011;8688;54.444;18.444;2022-12-29T00:48:42;4.53;;;3.33;;
17145;SDS011;8688;54.444;18.444;2022-12-29T00:51:41;5.57;;;3.53;;
17145;SDS011;8688;54.444;18.444;2022-12-29T00:54:09;4.47;;;3.23;;
17145;SDS011;8688;54.444;18.444;2022-12-29T00:56:38;5.30;;;3.27;;
17145;SDS011;8688;54.444;18.444;2022-12-29T00:59:07;3.60;;;2.90;;
17145;SDS011;8688;54.444;18.444;2022-12-29T01:01:36;4.63;;;2.80;;
17145;SDS011;8688;54.444;18.444;2022-12-29T01:04:04;3.90;;;2.73;;
17145;SDS011;8688;54.444;18.444;2022-12-29T01:06:32;3.40;;;2.60;;
17145;SDS011;8688;54.444;18.444;2022-12-29T01:09:00;3.20;;;2.23;;
17145;SDS011;8688;54.444;18.444;2022-12-29T01:11:46;3.83;;;2.63;;
17145;SDS011;8688;54.444;18.444;2022-12-29T01:14:13;3.20;;;2.00;;
17145;SDS011;8688;54.444;18.444;2022-12-29T01:16:41;2.83;;;2.40;;
17145;SDS011;8688;54.444;18.444;2022-12-29T01:19:09;3.67;;;2.50;;
17145;SDS011;8688;54.444;18.444;2022-12-29T01:21:36;4.57;;;2.50;;
17145;SDS011;8688;54.444;18.444;2022-12-29T01:24:04;3.33;;;2.43;;
17145;SDS011;8688;54.444;18.444;2022-12-29T01:26:32;3.67;;;2.30;;
17145;SDS011;8688;54.444;18.444;2022-12-29T01:29:01;3.40;;;2.40;;
17145;SDS011;8688;54.444;18.444;2022-12-29T01:31:28;2.93;;;2.37;;
17145;SDS011;8688;54.444;18.444;2022-12-29T01:33:56;3.17;;;2.30;;
17145;SDS011;8688;54.444;18.444;2022-12-29T01:36:23;5.40;;;2.47;;
17145;SDS011;8688;54.444;18.444;2022-12-29T01:38:51;3.20;;;2.30;;
17145;SDS011;8688;54.444;18.444;2022-12-29T01:41:18;2.40;;;2.10;;
17145;SDS011;8688;54.444;18.444;2022-12-29T01:43:46;2.73;;;1.97;;
17145;SDS011;8688;54.444;18.444;2022-12-29T01:46:18;3.73;;;2.23;;
17145;SDS011;8688;54.444;18.444;2022-12-29T01:48:51;2.00;;;1.80;;
17145;SDS011;8688;54.444;18.444;2022-12-29T01:51:21;2.60;;;2.10;;
17145;SDS011;8688;54.444;18.444;2022-12-29T01:53:51;2.77;;;2.07;;
17145;SDS011;8688;54.444;18.444;2022-12-29T01:56:21;2.90;;;2.10;;
17145;SDS011;8688;54.444;18.444;2022-12-29T01:58:51;3.80;;;1.90;;
17145;SDS011;8688;54.444;18.444;2022-12-29T02:01:25;3.47;;;1.90;;
17145;SDS011;8688;54.444;18.444;2022-12-29T02:03:53;2.90;;;1.80;;
17145;SDS011;8688;54.444;18.444;2022-12-29T02:06:22;3.00;;;2.07;;
17145;SDS011;8688;54.444;18.444;2022-12-29T02:08:53;3.30;;;1.93;;
17145;SDS011;8688;54.444;18.444;2022-12-29T02:11:23;3.63;;;1.67;;
17145;SDS011;8688;54.444;18.444;2022-12-29T02:13:52;2.77;;;1.73;;
17145;SDS011;8688;54.444;18.444;2022-12-29T02:16:29;2.23;;;1.50;;
17145;SDS011;8688;54.444;18.444;2022-12-29T02:19:18;1.33;;;1.07;;
17145;SDS011;8688;54.444;18.444;2022-12-29T02:22:17;2.20;;;1.50;;
17145;SDS011;8688;54.444;18.444;2022-12-29T02:27:53;2.17;;;1.43;;
17145;SDS011;8688;54.444;18.444;2022-12-29T02:30:44;1.17;;;1.00;;
17145;SDS011;8688;54.444;18.444;2022-12-29T02:33:21;2.43;;;1.33;;
17145;SDS011;8688;54.444;18.444;2022-12-29T02:35:56;1.90;;;1.20;;
17145;SDS011;8688;54.444;18.444;2022-12-29T02:38:42;1.63;;;1.37;;
17145;SDS011;8688;54.444;18.444;2022-12-29T02:41:19;2.23;;;1.60;;
17145;SDS011;8688;54.444;18.444;2022-12-29T02:43:50;1.90;;;1.70;;
17145;SDS011;8688;54.444;18.444;2022-12-29T02:46:25;4.27;;;1.40;;
17145;SDS011;8688;54.444;18.444;2022-12-29T02:48:59;2.67;;;1.87;;
17145;SDS011;8688;54.444;18.444;2022-12-29T02:51:37;2.20;;;1.80;;
17145;SDS011;8688;54.444;18.444;2022-12-29T02:54:10;3.03;;;1.97;;
17145;SDS011;8688;54.444;18.444;2022-12-29T02:56:55;2.53;;;1.90;;
17145;SDS011;8688;54.444;18.444;2022-12-29T02:59:22;1.87;;;1.67;;
17145;SDS011;8688;54.444;18.444;2022-12-29T03:02:05;2.17;;;1.60;;
17145;SDS011;8688;54.444;18.444;2022-12-29T03:04:51;2.43;;;1.60;;
17145;SDS011;8688;54.444;18.444;2022-12-29T03:07:28;2.93;;;2.10;;
17145;SDS011;8688;54.444;18.444;2022-12-29T03:10:04;2.23;;;1.73;;
17145;SDS011;8688;54.444;18.444;2022-12-29T03:12:41;1.97;;;1.73;;
17145;SDS011;8688;54.444;18.444;2022-12-29T03:15:33;2.93;;;1.73;;
17145;SDS011;8688;54.444;18.444;2022-12-29T03:18:25;2.83;;;1.77;;
17145;SDS011;8688;54.444;18.444;2022-12-29T03:21:14;1.93;;;1.77;;
17145;SDS011;8688;54.444;18.444;2022-12-29T03:23:46;2.70;;;1.60;;
17145;SDS011;8688;54.444;18.444;2022-12-29T03:26:16;2.97;;;1.90;;
17145;SDS011;8688;54.444;18.444;2022-12-29T03:28:45;3.23;;;2.20;;
17145;SDS011;8688;54.444;18.444;2022-12-29T03:31:17;5.17;;;2.43;;
17145;SDS011;8688;54.444;18.444;2022-12-29T03:33:46;4.37;;;2.30;;
17145;SDS011;8688;54.444;18.444;2022-12-29T03:36:17;4.30;;;2.07;;
17145;SDS011;8688;54.444;18.444;2022-12-29T03:38:52;3.07;;;2.17;;
17145;SDS011;8688;54.444;18.444;2022-12-29T03:41:26;3.33;;;2.10;;
17145;SDS011;8688;54.444;18.444;2022-12-29T03:43:56;2.83;;;2.47;;
17145;SDS011;8688;54.444;18.444;2022-12-29T03:46:24;2.87;;;2.50;;
17145;SDS011;8688;54.444;18.444;2022-12-29T03:48:53;3.57;;;2.43;;
17145;SDS011;8688;54.444;18.444;2022-12-29T03:51:20;4.40;;;3.07;;
17145;SDS011;8688;54.444;18.444;2022-12-29T03:53:48;2.97;;;2.43;;
17145;SDS011;8688;54.444;18.444;2022-12-29T03:56:15;3.00;;;2.60;;
17145;SDS011;8688;54.444;18.444;2022-12-29T03:58:42;2.80;;;2.50;;
17145;SDS011;8688;54.444;18.444;2022-12-29T04:01:10;2.57;;;2.37;;
17145;SDS011;8688;54.444;18.444;2022-12-29T04:03:37;2.77;;;2.40;;
17145;SDS011;8688;54.444;18.444;2022-12-29T04:06:06;4.67;;;2.67;;
17145;SDS011;8688;54.444;18.444;2022-12-29T04:08:34;3.30;;;2.73;;
17145;SDS011;8688;54.444;18.444;2022-12-29T04:11:01;3.90;;;3.00;;
17145;SDS011;8688;54.444;18.444;2022-12-29T04:13:29;3.57;;;2.80;;
17145;SDS011;8688;54.444;18.444;2022-12-29T04:15:57;4.47;;;3.30;;
17145;SDS011;8688;54.444;18.444;2022-12-29T04:18:24;5.20;;;3.53;;
17145;SDS011;8688;54.444;18.444;2022-12-29T04:20:52;4.20;;;3.50;;
17145;SDS011;8688;54.444;18.444;2022-12-29T04:23:31;5.10;;;3.50;;
17145;SDS011;8688;54.444;18.444;2022-12-29T04:26:00;6.47;;;4.07;;
17145;SDS011;8688;54.444;18.444;2022-12-29T04:28:28;6.20;;;4.50;;
17145;SDS011;8688;54.444;18.444;2022-12-29T04:30:56;7.13;;;4.77;;
17145;SDS011;8688;54.444;18.444;2022-12-29T04:33:23;7.33;;;5.23;;
17145;SDS011;8688;54.444;18.444;2022-12-29T04:35:51;7.20;;;5.50;;
17145;SDS011;8688;54.444;18.444;2022-12-29T04:38:19;10.60;;;6.30;;
17145;SDS011;8688;54.444;18.444;2022-12-29T04:40:49;8.60;;;6.20;;
17145;SDS011;8688;54.444;18.444;2022-12-29T04:43:17;8.57;;;6.13;;
17145;SDS011;8688;54.444;18.444;2022-12-29T04:45:45;8.60;;;6.03;;
17145;SDS011;8688;54.444;18.444;2022-12-29T04:48:13;10.47;;;6.63;;
17145;SDS011;8688;54.444;18.444;2022-12-29T04:50:41;8.90;;;6.27;;
17145;SDS011;8688;54.444;18.444;2022-12-29T04:53:09;8.30;;;6.87;;
17145;SDS011;8688;54.444;18.444;2022-12-29T04:55:36;8.93;;;6.47;;
17145;SDS011;8688;54.444;18.444;2022-12-29T04:58:05;10.97;;;6.73;;
17145;SDS011;8688;54.444;18.444;2022-12-29T05:00:36;12.57;;;7.37;;
17145;SDS011;8688;54.444;18.444;2022-12-29T05:03:04;10.77;;;7.20;;
17145;SDS011;8688;54.444;18.444;2022-12-29T05:05:31;12.47;;;6.93;;
17145;SDS011;8688;54.444;18.444;2022-12-29T05:07:59;10.60;;;7.30;;
17145;SDS011;8688;54.444;18.444;2022-12-29T05:10:26;10.90;;;7.37;;
17145;SDS011;8688;54.444;18.444;2022-12-29T05:12:54;8.37;;;6.87;;
17145;SDS011;8688;54.444;18.444;2022-12-29T05:15:23;10.03;;;7.30;;
17145;SDS011;8688;54.444;18.444;2022-12-29T05:17:50;12.33;;;7.70;;
17145;SDS011;8688;54.444;18.444;2022-12-29T05:20:17;12.90;;;7.47;;
17145;SDS011;8688;54.444;18.444;2022-12-29T05:22:45;10.73;;;7.50;;
17145;SDS011;8688;54.444;18.444;2022-12-29T05:25:12;10.60;;;7.63;;
17145;SDS011;8688;54.444;18.444;2022-12-29T05:27:40;11.97;;;7.60;;
17145;SDS011;8688;54.444;18.444;2022-12-29T05:30:08;11.07;;;7.60;;
17145;SDS011;8688;54.444;18.444;2022-12-29T05:32:37;11.73;;;8.30;;
17145;SDS011;8688;54.444;18.444;2022-12-29T05:35:05;12.83;;;7.93;;
17145;SDS011;8688;54.444;18.444;2022-12-29T05:37:33;12.97;;;7.57;;
17145;SDS011;8688;54.444;18.444;2022-12-29T05:40:01;12.03;;;7.47;;
17145;SDS011;8688;54.444;18.444;2022-12-29T05:42:28;9.90;;;7.63;;
17145;SDS011;8688;54.444;18.444;2022-12-29T05:44:56;9.70;;;6.80;;
17145;SDS011;8688;54.444;18.444;2022-12-29T05:47:23;12.17;;;7.77;;
17145;SDS011;8688;54.444;18.444;2022-12-29T05:49:52;11.80;;;7.53;;
17145;SDS011;8688;54.444;18.444;2022-12-29T05:52:20;13.73;;;7.17;;
17145;SDS011;8688;54.444;18.444;2022-12-29T05:54:47;11.53;;;6.93;;
17145;SDS011;8688;54.444;18.444;2022-12-29T05:57:15;13.00;;;7.37;;
17145;SDS011;8688;54.444;18.444;2022-12-29T05:59:42;11.30;;;6.47;;
17145;SDS011;8688;54.444;18.444;2022-12-29T06:02:10;11.37;;;7.30;;
17145;SDS011;8688;54.444;18.444;2022-12-29T06:04:37;11.97;;;7.13;;
17145;SDS011;8688;54.444;18.444;2022-12-29T06:07:06;11.47;;;7.10;;
17145;SDS011;8688;54.444;18.444;2022-12-29T06:09:33;10.70;;;6.87;;
17145;SDS011;8688;54.444;18.444;2022-12-29T06:12:01;9.93;;;7.73;;
17145;SDS011;8688;54.444;18.444;2022-12-29T06:14:28;12.73;;;7.07;;
17145;SDS011;8688;54.444;18.444;2022-12-29T06:16:56;12.87;;;7.13;;
17145;SDS011;8688;54.444;18.444;2022-12-29T06:19:23;11.07;;;7.00;;
17145;SDS011;8688;54.444;18.444;2022-12-29T06:21:51;11.93;;;7.23;;
17145;SDS011;8688;54.444;18.444;2022-12-29T06:24:20;8.50;;;6.63;;
17145;SDS011;8688;54.444;18.444;2022-12-29T06:26:48;13.70;;;7.33;;
17145;SDS011;8688;54.444;18.444;2022-12-29T06:29:15;12.37;;;7.27;;
17145;SDS011;8688;54.444;18.444;2022-12-29T06:31:43;13.07;;;8.03;;
17145;SDS011;8688;54.444;18.444;2022-12-29T06:34:11;11.90;;;7.43;;
17145;SDS011;8688;54.444;18.444;2022-12-29T06:36:39;12.70;;;7.23;;
17145;SDS011;8688;54.444;18.444;2022-12-29T06:39:06;13.43;;;7.23;;
17145;SDS011;8688;54.444;18.444;2022-12-29T06:41:35;11.10;;;7.57;;
17145;SDS011;8688;54.444;18.444;2022-12-29T06:44:03;13.77;;;7.20;;
17145;SDS011;8688;54.444;18.444;2022-12-29T06:46:30;12.30;;;6.30;;
17145;SDS011;8688;54.444;18.444;2022-12-29T06:48:58;12.07;;;7.30;;
17145;SDS011;8688;54.444;18.444;2022-12-29T06:51:25;12.23;;;7.40;;
17145;SDS011;8688;54.444;18.444;2022-12-29T06:53:53;11.83;;;7.47;;
17145;SDS011;8688;54.444;18.444;2022-12-29T06:56:20;9.33;;;6.40;;
17145;SDS011;8688;54.444;18.444;2022-12-29T06:58:49;11.83;;;6.57;;
17145;SDS011;8688;54.444;18.444;2022-12-29T07:01:16;10.13;;;6.53;;
17145;SDS011;8688;54.444;18.444;2022-12-29T07:03:44;10.50;;;6.10;;
17145;SDS011;8688;54.444;18.444;2022-12-29T07:06:11;13.87;;;7.07;;
17145;SDS011;8688;54.444;18.444;2022-12-29T07:08:38;12.63;;;6.87;;
17145;SDS011;8688;54.444;18.444;2022-12-29T07:11:06;10.53;;;6.43;;
17145;SDS011;8688;54.444;18.444;2022-12-29T07:13:33;11.27;;;7.33;;
17145;SDS011;8688;54.444;18.444;2022-12-29T07:16:05;11.17;;;7.30;;
17145;SDS011;8688;54.444;18.444;2022-12-29T07:18:33;11.03;;;5.93;;
17145;SDS011;8688;54.444;18.444;2022-12-29T07:21:02;10.50;;;6.93;;
17145;SDS011;8688;54.444;18.444;2022-12-29T07:23:30;13.40;;;6.70;;
17145;SDS011;8688;54.444;18.444;2022-12-29T07:26:00;9.87;;;7.00;;
17145;SDS011;8688;54.444;18.444;2022-12-29T07:28:28;10.20;;;6.57;;
17145;SDS011;8688;54.444;18.444;2022-12-29T07:30:55;10.03;;;6.67;;
17145;SDS011;8688;54.444;18.444;2022-12-29T07:33:24;10.50;;;7.13;;
17145;SDS011;8688;54.444;18.444;2022-12-29T07:35:52;11.37;;;7.10;;
17145;SDS011;8688;54.444;18.444;2022-12-29T07:38:19;10.83;;;6.50;;
17145;SDS011;8688;54.444;18.444;2022-12-29T07:40:47;12.00;;;7.30;;
17145;SDS011;8688;54.444;18.444;2022-12-29T07:43:14;10.27;;;7.30;;
17145;SDS011;8688;54.444;18.444;2022-12-29T07:45:42;10.77;;;6.77;;
17145;SDS011;8688;54.444;18.444;2022-12-29T07:48:09;10.83;;;6.60;;
17145;SDS011;8688;54.444;18.444;2022-12-29T07:50:38;10.87;;;6.90;;
17145;SDS011;8688;54.444;18.444;2022-12-29T07:53:05;10.33;;;6.50;;
17145;SDS011;8688;54.444;18.444;2022-12-29T07:55:32;8.70;;;6.20;;
17145;SDS011;8688;54.444;18.444;2022-12-29T07:58:00;10.60;;;6.47;;
17145;SDS011;8688;54.444;18.444;2022-12-29T08:00:27;12.13;;;7.07;;
17145;SDS011;8688;54.444;18.444;2022-12-29T08:02:55;11.80;;;5.70;;
17145;SDS011;8688;54.444;18.444;2022-12-29T08:05:22;12.67;;;7.00;;
17145;SDS011;8688;54.444;18.444;2022-12-29T08:07:51;12.00;;;6.70;;
17145;SDS011;8688;54.444;18.444;2022-12-29T08:10:18;13.33;;;7.00;;
17145;SDS011;8688;54.444;18.444;2022-12-29T08:12:46;12.97;;;7.33;;
17145;SDS011;8688;54.444;18.444;2022-12-29T08:15:13;14.57;;;7.40;;
17145;SDS011;8688;54.444;18.444;2022-12-29T08:17:41;11.03;;;6.70;;
17145;SDS011;8688;54.444;18.444;2022-12-29T08:20:09;9.67;;;6.50;;
17145;SDS011;8688;54.444;18.444;2022-12-29T08:22:37;10.23;;;6.23;;
17145;SDS011;8688;54.444;18.444;2022-12-29T08:25:06;10.77;;;6.77;;
17145;SDS011;8688;54.444;18.444;2022-12-29T08:27:34;10.53;;;6.10;;
17145;SDS011;8688;54.444;18.444;2022-12-29T08:30:02;10.63;;;6.63;;
17145;SDS011;8688;54.444;18.444;2022-12-29T08:32:29;11.10;;;6.50;;
17145;SDS011;8688;54.444;18.444;2022-12-29T08:34:57;10.03;;;6.10;;
17145;SDS011;8688;54.444;18.444;2022-12-29T08:37:25;9.63;;;5.73;;
17145;SDS011;8688;54.444;18.444;2022-12-29T08:39:53;9.03;;;6.00;;
17145;SDS011;8688;54.444;18.444;2022-12-29T08:42:22;8.67;;;6.10;;
17145;SDS011;8688;54.444;18.444;2022-12-29T08:44:50;9.27;;;6.43;;
17145;SDS011;8688;54.444;18.444;2022-12-29T08:47:17;9.10;;;5.87;;
17145;SDS011;8688;54.444;18.444;2022-12-29T08:49:45;8.97;;;6.00;;
17145;SDS011;8688;54.444;18.444;2022-12-29T08:52:12;11.20;;;6.80;;
17145;SDS011;8688;54.444;18.444;2022-12-29T08:54:39;8.93;;;5.60;;
17145;SDS011;8688;54.444;18.444;2022-12-29T08:57:07;9.57;;;6.37;;
17145;SDS011;8688;54.444;18.444;2022-12-29T08:59:36;10.10;;;6.00;;
17145;SDS011;8688;54.444;18.444;2022-12-29T09:02:03;9.60;;;6.33;;
17145;SDS011;8688;54.444;18.444;2022-12-29T09:04:31;12.47;;;7.40;;
17145;SDS011;8688;54.444;18.444;2022-12-29T09:06:58;12.07;;;7.43;;
17145;SDS011;8688;54.444;18.444;2022-12-29T09:09:26;10.13;;;6.13;;
17145;SDS011;8688;54.444;18.444;2022-12-29T09:11:53;11.87;;;6.90;;
17145;SDS011;8688;54.444;18.444;2022-12-29T09:14:21;10.87;;;6.70;;
17145;SDS011;8688;54.444;18.444;2022-12-29T09:16:51;12.03;;;6.70;;
17145;SDS011;8688;54.444;18.444;2022-12-29T09:19:37;10.00;;;6.67;;
17145;SDS011;8688;54.444;18.444;2022-12-29T09:22:04;11.50;;;7.10;;
17145;SDS011;8688;54.444;18.444;2022-12-29T09:24:32;9.53;;;6.33;;
17145;SDS011;8688;54.444;18.444;2022-12-29T09:26:59;12.60;;;6.63;;
17145;SDS011;8688;54.444;18.444;2022-12-29T09:29:26;10.13;;;6.67;;
17145;SDS011;8688;54.444;18.444;2022-12-29T09:31:55;9.37;;;6.30;;
17145;SDS011;8688;54.444;18.444;2022-12-29T09:34:23;13.03;;;6.97;;
17145;SDS011;8688;54.444;18.444;2022-12-29T09:36:50;12.97;;;6.20;;
17145;SDS011;8688;54.444;18.444;2022-12-29T09:39:18;10.70;;;6.00;;
17145;SDS011;8688;54.444;18.444;2022-12-29T09:41:47;10.07;;;6.50;;
17145;SDS011;8688;54.444;18.444;2022-12-29T09:44:20;11.00;;;6.30;;
17145;SDS011;8688;54.444;18.444;2022-12-29T09:46:52;10.30;;;6.27;;
17145;SDS011;8688;54.444;18.444;2022-12-29T09:49:25;12.13;;;6.80;;
17145;SDS011;8688;54.444;18.444;2022-12-29T09:51:57;14.93;;;6.90;;
17145;SDS011;8688;54.444;18.444;2022-12-29T09:54:34;11.00;;;6.77;;
17145;SDS011;8688;54.444;18.444;2022-12-29T09:57:10;11.20;;;7.00;;
17145;SDS011;8688;54.444;18.444;2022-12-29T09:59:46;13.07;;;7.33;;
17145;SDS011;8688;54.444;18.444;2022-12-29T10:02:22;10.60;;;6.17;;
17145;SDS011;8688;54.444;18.444;2022-12-29T10:04:57;11.67;;;6.43;;
17145;SDS011;8688;54.444;18.444;2022-12-29T10:07:27;10.00;;;5.87;;
17145;SDS011;8688;54.444;18.444;2022-12-29T10:10:03;9.53;;;6.43;;
17145;SDS011;8688;54.444;18.444;2022-12-29T10:12:45;8.50;;;5.97;;
17145;SDS011;8688;54.444;18.444;2022-12-29T10:15:29;8.97;;;5.97;;
17145;SDS011;8688;54.444;18.444;2022-12-29T10:18:15;7.80;;;5.37;;
17145;SDS011;8688;54.444;18.444;2022-12-29T10:20:59;9.43;;;5.97;;
17145;SDS011;8688;54.444;18.444;2022-12-29T10:23:34;11.57;;;6.80;;
17145;SDS011;8688;54.444;18.444;2022-12-29T10:26:07;9.33;;;5.27;;
17145;SDS011;8688;54.444;18.444;2022-12-29T10:28:41;8.90;;;5.70;;
17145;SDS011;8688;54.444;18.444;2022-12-29T10:31:13;7.90;;;5.80;;
17145;SDS011;8688;54.444;18.444;2022-12-29T10:33:46;9.57;;;5.23;;
17145;SDS011;8688;54.444;18.444;2022-12-29T10:36:20;10.50;;;5.80;;
17145;SDS011;8688;54.444;18.444;2022-12-29T10:38:58;8.90;;;5.70;;
17145;SDS011;8688;54.444;18.444;2022-12-29T10:41:34;9.60;;;5.63;;
17145;SDS011;8688;54.444;18.444;2022-12-29T10:44:07;9.93;;;5.70;;
17145;SDS011;8688;54.444;18.444;2022-12-29T10:46:38;11.20;;;5.30;;
17145;SDS011;8688;54.444;18.444;2022-12-29T10:49:06;8.07;;;5.00;;
17145;SDS011;8688;54.444;18.444;2022-12-29T10:51:43;9.33;;;5.07;;
17145;SDS011;8688;54.444;18.444;2022-12-29T10:54:15;10.93;;;5.67;;
17145;SDS011;8688;54.444;18.444;2022-12-29T10:56:49;10.00;;;5.43;;
17145;SDS011;8688;54.444;18.444;2022-12-29T10:59:19;13.87;;;8.07;;
17145;SDS011;8688;54.444;18.444;2022-12-29T11:01:51;9.00;;;5.50;;
17145;SDS011;8688;54.444;18.444;2022-12-29T11:04:35;8.00;;;5.30;;
17145;SDS011;8688;54.444;18.444;2022-12-29T11:07:14;8.27;;;5.07;;
17145;SDS011;8688;54.444;18.444;2022-12-29T11:09:44;11.43;;;5.63;;
17145;SDS011;8688;54.444;18.444;2022-12-29T11:12:23;10.10;;;5.17;;
17145;SDS011;8688;54.444;18.444;2022-12-29T11:15:02;9.47;;;5.37;;
17145;SDS011;8688;54.444;18.444;2022-12-29T11:17:43;13.87;;;7.27;;
17145;SDS011;8688;54.444;18.444;2022-12-29T11:20:32;20.33;;;13.60;;
17145;SDS011;8688;54.444;18.444;2022-12-29T11:23:04;35.17;;;16.60;;
17145;SDS011;8688;54.444;18.444;2022-12-29T11:25:51;28.33;;;14.53;;
17145;SDS011;8688;54.444;18.444;2022-12-29T11:28:33;16.07;;;8.70;;
17145;SDS011;8688;54.444;18.444;2022-12-29T11:31:01;8.10;;;5.13;;
17145;SDS011;8688;54.444;18.444;2022-12-29T11:33:30;10.83;;;6.83;;
17145;SDS011;8688;54.444;18.444;2022-12-29T11:35:58;20.30;;;11.73;;
17145;SDS011;8688;54.444;18.444;2022-12-29T11:38:31;15.87;;;9.57;;
17145;SDS011;8688;54.444;18.444;2022-12-29T11:41:01;10.83;;;5.10;;
17145;SDS011;8688;54.444;18.444;2022-12-29T11:43:30;10.50;;;5.20;;
17145;SDS011;8688;54.444;18.444;2022-12-29T11:46:00;15.10;;;6.73;;
17145;SDS011;8688;54.444;18.444;2022-12-29T11:48:31;9.80;;;4.90;;
17145;SDS011;8688;54.444;18.444;2022-12-29T11:51:04;9.47;;;5.73;;
17145;SDS011;8688;54.444;18.444;2022-12-29T11:53:36;10.80;;;5.95;;
17145;SDS011;8688;54.444;18.444;2022-12-29T11:56:08;16.27;;;9.00;;
17145;SDS011;8688;54.444;18.444;2022-12-29T11:58:39;17.10;;;9.63;;
17145;SDS011;8688;54.444;18.444;2022-12-29T12:01:06;13.43;;;8.60;;
17145;SDS011;8688;54.444;18.444;2022-12-29T12:03:38;10.57;;;7.03;;
17145;SDS011;8688;54.444;18.444;2022-12-29T12:06:14;9.53;;;5.37;;
17145;SDS011;8688;54.444;18.444;2022-12-29T12:08:48;9.23;;;5.47;;
17145;SDS011;8688;54.444;18.444;2022-12-29T12:11:21;7.63;;;4.60;;
17145;SDS011;8688;54.444;18.444;2022-12-29T12:13:56;9.37;;;5.47;;
17145;SDS011;8688;54.444;18.444;2022-12-29T12:16:28;8.98;;;4.82;;
17145;SDS011;8688;54.444;18.444;2022-12-29T12:19:02;10.63;;;4.87;;
17145;SDS011;8688;54.444;18.444;2022-12-29T12:21:38;7.57;;;4.40;;
17145;SDS011;8688;54.444;18.444;2022-12-29T12:24:15;8.30;;;4.17;;
17145;SDS011;8688;54.444;18.444;2022-12-29T12:26:57;11.83;;;5.80;;
17145;SDS011;8688;54.444;18.444;2022-12-29T12:29:31;8.17;;;5.00;;
17145;SDS011;8688;54.444;18.444;2022-12-29T12:32:04;12.37;;;8.20;;
17145;SDS011;8688;54.444;18.444;2022-12-29T12:34:38;8.10;;;5.20;;
17145;SDS011;8688;54.444;18.444;2022-12-29T12:37:30;12.87;;;7.27;;
17145;SDS011;8688;54.444;18.444;2022-12-29T12:40:23;14.20;;;6.80;;
17145;SDS011;8688;54.444;18.444;2022-12-29T12:43:15;11.30;;;6.80;;
17145;SDS011;8688;54.444;18.444;2022-12-29T12:45:55;14.53;;;8.13;;
17145;SDS011;8688;54.444;18.444;2022-12-29T12:48:42;8.20;;;5.50;;
17145;SDS011;8688;54.444;18.444;2022-12-29T12:51:20;10.17;;;5.90;;
17145;SDS011;8688;54.444;18.444;2022-12-29T12:53:59;6.80;;;4.63;;
17145;SDS011;8688;54.444;18.444;2022-12-29T12:56:43;9.43;;;5.87;;
17145;SDS011;8688;54.444;18.444;2022-12-29T12:59:23;18.73;;;10.93;;
17145;SDS011;8688;54.444;18.444;2022-12-29T13:02:09;15.77;;;8.30;;
17145;SDS011;8688;54.444;18.444;2022-12-29T13:05:02;8.83;;;5.30;;
17145;SDS011;8688;54.444;18.444;2022-12-29T13:07:48;14.33;;;9.67;;
17145;SDS011;8688;54.444;18.444;2022-12-29T13:10:30;7.93;;;5.13;;
17145;SDS011;8688;54.444;18.444;2022-12-29T13:13:12;9.30;;;5.70;;
17145;SDS011;8688;54.444;18.444;2022-12-29T13:15:57;11.20;;;7.10;;
17145;SDS011;8688;54.444;18.444;2022-12-29T13:18:32;7.97;;;5.13;;
17145;SDS011;8688;54.444;18.444;2022-12-29T13:21:06;8.03;;;5.43;;
17145;SDS011;8688;54.444;18.444;2022-12-29T13:23:39;8.53;;;5.83;;
17145;SDS011;8688;54.444;18.444;2022-12-29T13:26:11;8.30;;;5.13;;
17145;SDS011;8688;54.444;18.444;2022-12-29T13:28:50;6.10;;;4.80;;
17145;SDS011;8688;54.444;18.444;2022-12-29T13:31:26;8.13;;;5.20;;
17145;SDS011;8688;54.444;18.444;2022-12-29T13:33:58;14.20;;;7.20;;
17145;SDS011;8688;54.444;18.444;2022-12-29T13:36:33;10.47;;;5.20;;
17145;SDS011;8688;54.444;18.444;2022-12-29T13:39:09;11.90;;;5.40;;
17145;SDS011;8688;54.444;18.444;2022-12-29T13:41:41;7.07;;;4.90;;
17145;SDS011;8688;54.444;18.444;2022-12-29T13:44:14;9.20;;;5.50;;
17145;SDS011;8688;54.444;18.444;2022-12-29T13:46:44;12.73;;;7.07;;
17145;SDS011;8688;54.444;18.444;2022-12-29T13:49:13;7.03;;;4.67;;
17145;SDS011;8688;54.444;18.444;2022-12-29T13:51:46;7.60;;;5.33;;
17145;SDS011;8688;54.444;18.444;2022-12-29T13:54:25;8.83;;;5.20;;
17145;SDS011;8688;54.444;18.444;2022-12-29T13:57:03;8.03;;;5.33;;
17145;SDS011;8688;54.444;18.444;2022-12-29T13:59:42;9.87;;;5.63;;
17145;SDS011;8688;54.444;18.444;2022-12-29T14:02:19;9.97;;;5.80;;
17145;SDS011;8688;54.444;18.444;2022-12-29T14:04:57;8.23;;;5.30;;
17145;SDS011;8688;54.444;18.444;2022-12-29T14:07:26;12.20;;;5.73;;
17145;SDS011;8688;54.444;18.444;2022-12-29T14:09:55;8.77;;;5.37;;
17145;SDS011;8688;54.444;18.444;2022-12-29T14:12:35;7.83;;;5.23;;
17145;SDS011;8688;54.444;18.444;2022-12-29T14:15:18;12.20;;;6.73;;
17145;SDS011;8688;54.444;18.444;2022-12-29T14:18:09;18.43;;;9.83;;
17145;SDS011;8688;54.444;18.444;2022-12-29T14:20:46;15.53;;;8.47;;
17145;SDS011;8688;54.444;18.444;2022-12-29T14:23:26;10.47;;;6.60;;
17145;SDS011;8688;54.444;18.444;2022-12-29T14:26:09;12.70;;;7.80;;
17145;SDS011;8688;54.444;18.444;2022-12-29T14:28:41;13.87;;;9.13;;
17145;SDS011;8688;54.444;18.444;2022-12-29T14:34:15;11.10;;;7.57;;
17145;SDS011;8688;54.444;18.444;2022-12-29T14:36:54;14.43;;;7.40;;
17145;SDS011;8688;54.444;18.444;2022-12-29T14:42:11;9.87;;;5.90;;
17145;SDS011;8688;54.444;18.444;2022-12-29T14:44:46;9.47;;;5.70;;
17145;SDS011;8688;54.444;18.444;2022-12-29T14:47:17;11.87;;;6.23;;
17145;SDS011;8688;54.444;18.444;2022-12-29T14:49:48;8.27;;;4.87;;
17145;SDS011;8688;54.444;18.444;2022-12-29T14:52:17;10.80;;;5.73;;
17145;SDS011;8688;54.444;18.444;2022-12-29T14:54:48;12.60;;;6.90;;
17145;SDS011;8688;54.444;18.444;2022-12-29T14:57:21;37.20;;;19.00;;
17145;SDS011;8688;54.444;18.444;2022-12-29T15:00:01;20.70;;;10.23;;
17145;SDS011;8688;54.444;18.444;2022-12-29T15:02:36;10.37;;;6.03;;
17145;SDS011;8688;54.444;18.444;2022-12-29T15:05:15;10.13;;;6.17;;
17145;SDS011;8688;54.444;18.444;2022-12-29T15:07:54;8.50;;;5.73;;
17145;SDS011;8688;54.444;18.444;2022-12-29T15:10:23;12.77;;;5.93;;
17145;SDS011;8688;54.444;18.444;2022-12-29T15:12:53;10.37;;;6.03;;
17145;SDS011;8688;54.444;18.444;2022-12-29T15:15:22;11.37;;;6.27;;
17145;SDS011;8688;54.444;18.444;2022-12-29T15:17:52;16.27;;;7.50;;
17145;SDS011;8688;54.444;18.444;2022-12-29T15:20:25;12.07;;;7.20;;
17145;SDS011;8688;54.444;18.444;2022-12-29T15:22:55;10.07;;;6.20;;
17145;SDS011;8688;54.444;18.444;2022-12-29T15:25:23;12.50;;;7.00;;